Time;durP1;ratioP1;P1;durP2;ratioP2;P2;SDS_P1;SDS_P2;PMS_P1;PMS_P2;Temp;Humidity;BMP_temperature;BMP_pressure;BME280_temperature;BME280_humidity;BME280_pressure;Samples;Min_cycle;Max_cycle;Signal;HPM_P1;HPM_P2
2021/05/07 00:01:58;;;;;;;3.00;2.13;;;;;9.60;100630.00;;;;5072062;28;20203;-78
2021/05/07 00:04:24;;;;;;;3.42;2.53;;;;;9.50;100624.00;;;;5072060;28;20687;-78
2021/05/07 00:06:52;;;;;;;2.70;1.90;;;;;9.50;100627.00;;;;5071488;28;20227;-78
2021/05/07 00:09:20;;;;;;;3.47;2.28;;;;;9.50;100623.00;;;;5072042;28;20194;-78
2021/05/07 00:11:47;;;;;;;3.17;2.40;;;;;9.40;100624.00;;;;5071271;28;20203;-77
2021/05/07 00:14:13;;;;;;;2.85;1.90;;;;;9.40;100630.00;;;;5071654;28;20223;-78
2021/05/07 00:16:40;;;;;;;3.38;2.20;;;;;9.40;100626.00;;;;5087377;28;20206;-78
2021/05/07 00:19:08;;;;;;;2.88;2.15;;;;;9.40;100633.00;;;;5091431;28;20213;-78
2021/05/07 00:21:35;;;;;;;4.43;2.40;;;;;9.30;100622.00;;;;5092228;28;20201;-78
2021/05/07 00:24:02;;;;;;;4.95;2.15;;;;;9.30;100620.00;;;;5092155;28;20202;-78
2021/05/07 00:26:30;;;;;;;3.58;1.92;;;;;9.30;100629.00;;;;5091735;28;20205;-78
2021/05/07 00:28:56;;;;;;;3.25;2.28;;;;;9.20;100627.00;;;;5071732;28;20195;-78
2021/05/07 00:31:23;;;;;;;4.72;2.83;;;;;9.20;100625.00;;;;5071434;28;20226;-76
2021/05/07 00:33:50;;;;;;;3.75;2.42;;;;;9.20;100623.00;;;;5088002;28;20215;-78
2021/05/07 00:36:16;;;;;;;3.72;2.45;;;;;9.20;100623.00;;;;5090685;28;20214;-78
2021/05/07 00:38:43;;;;;;;4.40;2.40;;;;;9.10;100625.00;;;;5092057;28;20202;-78
2021/05/07 00:41:10;;;;;;;3.72;2.55;;;;;9.10;100624.00;;;;5091185;28;20221;-78
2021/05/07 00:43:39;;;;;;;3.83;2.65;;;;;9.10;100625.00;;;;5091629;28;20633;-78
2021/05/07 00:46:06;;;;;;;3.45;2.28;;;;;9.10;100630.00;;;;5091093;28;20228;-78
2021/05/07 00:48:33;;;;;;;3.42;2.80;;;;;9.00;100631.00;;;;5091856;28;20263;-78
2021/05/07 00:51:00;;;;;;;3.58;2.55;;;;;9.00;100630.00;;;;5089745;28;20236;-78
2021/05/07 00:53:28;;;;;;;4.60;3.17;;;;;9.00;100632.00;;;;5091407;28;20660;-78
2021/05/07 00:55:55;;;;;;;3.63;2.42;;;;;9.00;100630.00;;;;5091427;28;20213;-78
2021/05/07 00:58:22;;;;;;;3.92;2.63;;;;;8.90;100633.00;;;;5091265;28;20236;-78
2021/05/07 01:00:51;;;;;;;4.15;2.53;;;;;8.90;100641.00;;;;5090908;28;20198;-78
2021/05/07 01:03:19;;;;;;;2.78;2.42;;;;;8.90;100647.00;;;;5091080;28;20206;-78
2021/05/07 01:05:45;;;;;;;3.05;2.33;;;;;8.90;100656.00;;;;5090924;28;20194;-78
2021/05/07 01:08:13;;;;;;;3.55;2.63;;;;;8.90;100651.00;;;;5090007;28;20276;-78
2021/05/07 01:10:40;;;;;;;5.03;2.83;;;;;8.90;100648.00;;;;5082900;28;20222;-78
2021/05/07 01:13:07;;;;;;;4.35;3.00;;;;;8.90;100652.00;;;;5070325;28;20223;-75
2021/05/07 01:15:34;;;;;;;4.50;2.70;;;;;8.80;100656.00;;;;5070543;28;20250;-78
2021/05/07 01:18:01;;;;;;;4.45;2.80;;;;;8.80;100653.00;;;;5070508;28;20202;-78
2021/05/07 01:20:30;;;;;;;4.45;2.55;;;;;8.80;100654.00;;;;5070837;28;20206;-79
2021/05/07 01:23:00;;;;;;;3.65;2.63;;;;;8.80;100662.00;;;;5070714;28;20199;-78
2021/05/07 01:25:29;;;;;;;4.28;2.75;;;;;8.80;100654.00;;;;5070697;28;20207;-78
2021/05/07 01:27:57;;;;;;;4.00;2.70;;;;;8.80;100648.00;;;;5077054;28;20198;-78
2021/05/07 01:30:26;;;;;;;3.17;2.47;;;;;8.80;100654.00;;;;5075771;28;20225;-78
2021/05/07 01:32:53;;;;;;;4.68;3.30;;;;;8.70;100660.00;;;;5069904;28;20195;-78
2021/05/07 01:35:21;;;;;;;3.40;2.70;;;;;8.70;100656.00;;;;5070309;28;20699;-78
2021/05/07 01:37:51;;;;;;;5.03;2.85;;;;;8.70;100651.00;;;;5070336;28;20241;-78
2021/05/07 01:40:19;;;;;;;3.90;2.78;;;;;8.70;100654.00;;;;5073586;28;20819;-78
2021/05/07 01:42:47;;;;;;;4.63;3.00;;;;;8.70;100646.00;;;;5090645;28;20210;-78
2021/05/07 01:45:16;;;;;;;3.63;2.75;;;;;8.70;100661.00;;;;5090325;28;20205;-76
2021/05/07 01:47:43;;;;;;;4.55;3.25;;;;;8.80;100663.00;;;;5090414;28;20579;-78
2021/05/07 01:50:12;;;;;;;5.60;3.03;;;;;8.80;100663.00;;;;5089558;28;20218;-76
2021/05/07 01:52:39;;;;;;;4.88;2.40;;;;;8.80;100665.00;;;;5090512;28;20201;-76
2021/05/07 01:55:09;;;;;;;4.53;2.35;;;;;8.80;100667.00;;;;5090188;28;20201;-76
2021/05/07 01:57:37;;;;;;;4.00;2.58;;;;;8.90;100662.00;;;;5089115;28;20207;-75
2021/05/07 02:00:08;;;;;;;3.22;2.50;;;;;8.90;100660.00;;;;5090007;28;20202;-76
2021/05/07 02:02:34;;;;;;;3.92;2.60;;;;;9.00;100660.00;;;;5090103;28;20198;-79
2021/05/07 02:05:01;;;;;;;4.07;2.78;;;;;9.00;100667.00;;;;5089233;28;20228;-78
2021/05/07 02:07:29;;;;;;;3.60;2.58;;;;;9.10;100677.00;;;;5089864;28;20620;-78
2021/05/07 02:09:55;;;;;;;3.95;2.63;;;;;9.10;100676.00;;;;5088304;28;20309;-76
2021/05/07 02:12:23;;;;;;;4.45;2.80;;;;;9.10;100668.00;;;;5069729;28;20214;-76
2021/05/07 02:14:50;;;;;;;4.55;3.20;;;;;9.10;100676.00;;;;5069895;28;20223;-76
2021/05/07 02:17:17;;;;;;;4.43;3.10;;;;;9.20;100680.00;;;;5069419;28;20817;-76
2021/05/07 02:19:45;;;;;;;3.80;3.15;;;;;9.20;100675.00;;;;5069860;28;20210;-78
2021/05/07 02:22:12;;;;;;;3.80;2.83;;;;;9.20;100680.00;;;;5069297;28;20207;-76
2021/05/07 02:24:39;;;;;;;3.78;3.13;;;;;9.30;100670.00;;;;5068722;28;20202;-76
2021/05/07 02:27:06;;;;;;;3.97;2.90;;;;;9.30;100657.00;;;;5071718;28;20213;-78
2021/05/07 02:29:34;;;;;;;4.78;3.58;;;;;9.30;100661.00;;;;5089625;28;20202;-78
2021/05/07 02:32:01;;;;;;;4.72;3.17;;;;;9.40;100666.00;;;;5077904;28;20252;-78
2021/05/07 02:34:27;;;;;;;3.78;2.85;;;;;9.40;100678.00;;;;5069147;28;20210;-78
2021/05/07 02:36:54;;;;;;;3.88;2.92;;;;;9.40;100662.00;;;;5068678;28;20222;-78
2021/05/07 02:39:21;;;;;;;4.28;2.70;;;;;9.50;100673.00;;;;5068019;28;20203;-78
2021/05/07 02:41:47;;;;;;;4.35;3.22;;;;;9.50;100680.00;;;;5068825;28;20207;-78
2021/05/07 02:44:14;;;;;;;4.13;3.10;;;;;9.50;100683.00;;;;5068715;28;20206;-78
2021/05/07 02:46:42;;;;;;;4.53;3.08;;;;;9.60;100688.00;;;;5068983;28;20252;-78
2021/05/07 02:49:09;;;;;;;3.78;3.03;;;;;9.60;100690.00;;;;5069347;28;20203;-78
2021/05/07 02:51:36;;;;;;;4.30;2.92;;;;;9.70;100685.00;;;;5068451;28;20227;-78
2021/05/07 02:54:03;;;;;;;3.85;3.08;;;;;9.70;100684.00;;;;5068340;28;20226;-78
2021/05/07 02:56:30;;;;;;;3.28;2.80;;;;;9.70;100686.00;;;;5068921;28;20187;-78
2021/05/07 02:58:57;;;;;;;3.60;2.70;;;;;9.80;100692.00;;;;5068977;28;20218;-78
2021/05/07 03:01:23;;;;;;;2.72;2.50;;;;;9.80;100692.00;;;;5069125;28;20199;-78
2021/05/07 03:03:51;;;;;;;3.88;3.30;;;;;9.80;100700.00;;;;5068719;28;20204;-78
2021/05/07 03:06:18;;;;;;;3.47;2.85;;;;;9.90;100712.00;;;;5069098;28;20264;-78
2021/05/07 03:08:45;;;;;;;4.22;2.58;;;;;9.90;100713.00;;;;5068686;28;20213;-78
2021/05/07 03:11:11;;;;;;;4.65;2.92;;;;;10.00;100719.00;;;;5067829;28;20234;-78
2021/05/07 03:13:38;;;;;;;5.05;3.05;;;;;10.00;100723.00;;;;5067759;28;20215;-78
2021/05/07 03:16:05;;;;;;;4.88;2.88;;;;;10.00;100727.00;;;;5067168;28;20196;-78
2021/05/07 03:18:32;;;;;;;4.70;3.08;;;;;10.00;100737.00;;;;5067977;28;20576;-78
2021/05/07 03:21:00;;;;;;;3.95;3.10;;;;;10.00;100751.00;;;;5067413;28;20195;-78
2021/05/07 03:23:26;;;;;;;4.07;3.15;;;;;10.00;100754.00;;;;5080913;28;20252;-78
2021/05/07 03:25:53;;;;;;;3.97;3.35;;;;;10.00;100761.00;;;;5088154;28;20191;-78
2021/05/07 03:28:20;;;;;;;4.55;3.13;;;;;10.10;100774.00;;;;5087541;28;20205;-78
2021/05/07 03:30:48;;;;;;;4.60;2.63;;;;;10.00;100773.00;;;;5088689;28;20401;-77
2021/05/07 03:33:15;;;;;;;3.45;2.20;;;;;10.00;100788.00;;;;5088601;28;20241;-78
2021/05/07 03:35:41;;;;;;;3.20;2.05;;;;;10.00;100790.00;;;;5090898;28;20602;-75
2021/05/07 03:38:09;;;;;;;2.80;1.48;;;;;9.90;100801.00;;;;5092090;28;20202;-76
2021/05/07 03:40:36;;;;;;;2.65;1.63;;;;;9.90;100800.00;;;;5092401;28;20205;-76
2021/05/07 03:43:02;;;;;;;2.42;1.50;;;;;9.90;100801.00;;;;5092307;28;20197;-77
2021/05/07 03:45:29;;;;;;;1.60;1.08;;;;;9.90;100800.00;;;;5092479;28;20849;-76
2021/05/07 03:47:56;;;;;;;2.10;1.33;;;;;9.90;100798.00;;;;5092647;28;20582;-76
2021/05/07 03:50:23;;;;;;;1.73;1.42;;;;;9.90;100804.00;;;;5092600;28;20684;-76
2021/05/07 03:52:49;;;;;;;2.42;1.35;;;;;9.90;100810.00;;;;5092237;28;20252;-76
2021/05/07 03:55:17;;;;;;;2.53;1.50;;;;;9.90;100808.00;;;;5091580;28;20194;-76
2021/05/07 03:57:46;;;;;;;1.48;1.05;;;;;9.90;100806.00;;;;5091573;28;20218;-76
2021/05/07 04:00:14;;;;;;;1.20;0.88;;;;;9.90;100804.00;;;;5092576;28;20198;-76
2021/05/07 04:02:41;;;;;;;1.40;1.00;;;;;9.90;100814.00;;;;5092406;28;20573;-75
2021/05/07 04:05:08;;;;;;;2.00;0.98;;;;;9.90;100815.00;;;;5091743;28;20411;-76
2021/05/07 04:07:35;;;;;;;1.83;1.05;;;;;9.90;100809.00;;;;5092087;28;20279;-76
2021/05/07 04:10:05;;;;;;;2.08;1.13;;;;;9.90;100808.00;;;;5088983;28;20602;-76
2021/05/07 04:15:18;;;;;;;1.35;0.98;;;;;9.90;100784.00;;;;5071976;28;20311;-75
2021/05/07 04:17:45;;;;;;;2.55;1.30;;;;;9.90;100781.00;;;;5072212;28;20202;-76
2021/05/07 04:20:12;;;;;;;2.00;0.98;;;;;9.90;100774.00;;;;5070725;28;20325;-76
2021/05/07 04:22:39;;;;;;;1.35;1.00;;;;;9.90;100792.00;;;;5071919;28;20630;-76
2021/05/07 04:25:07;;;;;;;1.33;0.88;;;;;9.90;100797.00;;;;5071493;28;20203;-76
2021/05/07 04:27:35;;;;;;;1.25;1.02;;;;;9.90;100802.00;;;;5072983;28;20198;-75
2021/05/07 04:30:02;;;;;;;1.30;0.63;;;;;9.90;100817.00;;;;5083226;28;20211;-76
2021/05/07 04:32:28;;;;;;;1.15;0.60;;;;;9.90;100822.00;;;;5091745;28;20202;-76
2021/05/07 04:34:55;;;;;;;1.10;0.80;;;;;9.90;100823.00;;;;5091624;28;20201;-76
2021/05/07 04:37:22;;;;;;;1.25;0.95;;;;;9.90;100837.00;;;;5091681;28;20202;-76
2021/05/07 04:39:49;;;;;;;0.90;0.70;;;;;10.00;100844.00;;;;5091634;28;20202;-76
2021/05/07 04:42:15;;;;;;;1.33;0.98;;;;;10.00;100851.00;;;;5091083;28;20202;-76
2021/05/07 04:44:43;;;;;;;1.30;0.93;;;;;10.00;100855.00;;;;5091659;28;20198;-76
2021/05/07 04:47:10;;;;;;;0.93;0.70;;;;;10.00;100863.00;;;;5089166;28;20203;-76
2021/05/07 04:49:37;;;;;;;2.55;0.90;;;;;10.00;100879.00;;;;5091091;28;20198;-76
2021/05/07 04:52:04;;;;;;;0.98;0.75;;;;;10.00;100874.00;;;;5090242;28;20267;-77
2021/05/07 04:54:33;;;;;;;1.00;0.70;;;;;10.00;100869.00;;;;5091568;28;20617;-75
2021/05/07 04:57:00;;;;;;;1.50;0.70;;;;;10.00;100881.00;;;;5090770;28;20213;-76
2021/05/07 04:59:26;;;;;;;1.67;1.02;;;;;10.10;100876.00;;;;5091130;28;20202;-76
2021/05/07 05:01:54;;;;;;;1.83;0.80;;;;;10.10;100880.00;;;;5091308;28;20198;-76
2021/05/07 05:04:21;;;;;;;1.35;1.00;;;;;10.10;100883.00;;;;5090562;28;20209;-75
2021/05/07 05:06:47;;;;;;;1.20;1.00;;;;;10.20;100885.00;;;;5090250;28;20731;-75
2021/05/07 05:09:14;;;;;;;1.25;0.70;;;;;10.20;100896.00;;;;5090674;28;20198;-76
2021/05/07 05:11:41;;;;;;;1.23;0.68;;;;;10.20;100898.00;;;;5074408;28;20612;-76
2021/05/07 05:14:07;;;;;;;1.17;0.90;;;;;10.20;100902.00;;;;5070356;28;20225;-76
2021/05/07 05:16:34;;;;;;;0.85;0.70;;;;;10.30;100912.00;;;;5070629;28;20203;-76
2021/05/07 05:19:02;;;;;;;1.10;0.80;;;;;10.30;100910.00;;;;5070077;28;20587;-76
2021/05/07 05:21:28;;;;;;;1.52;0.75;;;;;10.30;100915.00;;;;5070914;28;20732;-76
2021/05/07 05:23:56;;;;;;;2.10;0.70;;;;;10.30;100914.00;;;;5070859;28;20219;-76
2021/05/07 05:26:22;;;;;;;1.30;0.85;;;;;10.30;100927.00;;;;5071400;28;20268;-76
2021/05/07 05:28:49;;;;;;;2.25;0.90;;;;;10.30;100924.00;;;;5085003;28;20207;-76
2021/05/07 05:31:16;;;;;;;1.75;0.85;;;;;10.30;100936.00;;;;5090624;28;20221;-76
2021/05/07 05:33:43;;;;;;;0.90;0.68;;;;;10.30;100933.00;;;;5090946;28;20198;-76
2021/05/07 05:36:10;;;;;;;1.52;0.93;;;;;10.30;100937.00;;;;5090068;28;20683;-76
2021/05/07 05:38:37;;;;;;;0.98;0.77;;;;;10.30;100940.00;;;;5083260;28;20214;-76
2021/05/07 05:41:04;;;;;;;0.98;0.80;;;;;10.30;100952.00;;;;5069449;28;20202;-76
2021/05/07 05:43:30;;;;;;;1.45;1.10;;;;;10.30;100952.00;;;;5070022;28;20207;-76
2021/05/07 05:45:57;;;;;;;1.70;0.95;;;;;10.40;100959.00;;;;5069854;28;20203;-76
2021/05/07 05:48:24;;;;;;;0.88;0.77;;;;;10.40;100968.00;;;;5069493;28;20264;-76
2021/05/07 05:50:52;;;;;;;0.93;0.65;;;;;10.40;100963.00;;;;5069686;28;20598;-76
2021/05/07 05:53:21;;;;;;;3.03;0.80;;;;;10.50;100965.00;;;;5069853;28;20233;-76
2021/05/07 05:55:47;;;;;;;0.77;0.60;;;;;10.50;100967.00;;;;5070961;28;20202;-76
2021/05/07 05:58:14;;;;;;;2.22;1.23;;;;;10.50;100981.00;;;;5069577;28;20219;-77
2021/05/07 06:00:41;;;;;;;1.30;0.70;;;;;10.60;100981.00;;;;5069380;28;20202;-76
2021/05/07 06:03:08;;;;;;;1.30;0.70;;;;;10.60;100984.00;;;;5069674;28;20247;-76
2021/05/07 06:05:35;;;;;;;0.90;0.70;;;;;10.60;100982.00;;;;5069421;28;20888;-76
2021/05/07 06:08:01;;;;;;;1.23;0.80;;;;;10.70;100985.00;;;;5068565;28;20242;-76
2021/05/07 06:10:29;;;;;;;2.60;0.68;;;;;10.70;100994.00;;;;5069969;28;20223;-76
2021/05/07 06:12:56;;;;;;;1.73;0.70;;;;;10.70;100993.00;;;;5079432;28;20695;-76
2021/05/07 06:15:23;;;;;;;1.17;0.70;;;;;10.80;101007.00;;;;5089447;28;20218;-76
2021/05/07 06:17:49;;;;;;;0.85;0.57;;;;;10.90;101003.00;;;;5090066;28;20664;-76
2021/05/07 06:20:18;;;;;;;0.90;0.60;;;;;11.00;101003.00;;;;5089939;28;20203;-76
2021/05/07 06:22:46;;;;;;;0.77;0.60;;;;;11.00;101012.00;;;;5089699;28;20194;-76
2021/05/07 06:25:14;;;;;;;0.85;0.60;;;;;11.10;101016.00;;;;5089707;28;20213;-76
2021/05/07 06:27:42;;;;;;;1.00;0.70;;;;;11.10;101013.00;;;;5085054;28;20225;-77
2021/05/07 06:30:11;;;;;;;0.88;0.50;;;;;11.10;101012.00;;;;5079621;28;20210;-76
2021/05/07 06:32:38;;;;;;;0.90;0.60;;;;;11.20;101016.00;;;;5090114;28;20644;-76
2021/05/07 06:35:06;;;;;;;1.00;0.70;;;;;11.20;101022.00;;;;5089240;28;20198;-77
2021/05/07 06:37:33;;;;;;;1.17;0.70;;;;;11.30;101025.00;;;;5090197;28;20230;-77
2021/05/07 06:40:00;;;;;;;1.15;0.65;;;;;11.30;101029.00;;;;5088622;28;20754;-76
2021/05/07 06:42:28;;;;;;;0.82;0.65;;;;;11.30;101035.00;;;;5089730;28;20250;-77
2021/05/07 06:44:55;;;;;;;1.00;0.57;;;;;11.40;101027.00;;;;5089410;28;20198;-76
2021/05/07 06:47:22;;;;;;;0.82;0.63;;;;;11.40;101037.00;;;;5088473;28;20210;-76
2021/05/07 06:49:49;;;;;;;0.57;0.50;;;;;11.50;101039.00;;;;5089073;28;20648;-77
2021/05/07 06:52:15;;;;;;;1.13;0.70;;;;;11.60;101049.00;;;;5089069;28;20222;-76
2021/05/07 06:54:42;;;;;;;1.10;0.65;;;;;11.60;101041.00;;;;5088848;28;20205;-76
2021/05/07 06:57:09;;;;;;;0.77;0.68;;;;;11.70;101040.00;;;;5088966;28;20209;-76
2021/05/07 06:59:35;;;;;;;1.13;0.70;;;;;11.80;101046.00;;;;5088520;28;20202;-77
2021/05/07 07:02:03;;;;;;;0.93;0.82;;;;;11.80;101052.00;;;;5088741;28;20687;-77
2021/05/07 07:04:30;;;;;;;2.90;1.05;;;;;11.90;101046.00;;;;5089001;28;20217;-76
2021/05/07 07:06:57;;;;;;;1.88;0.85;;;;;12.00;101054.00;;;;5088882;28;20226;-77
2021/05/07 07:09:24;;;;;;;1.00;0.90;;;;;12.00;101058.00;;;;5088672;28;20234;-77
2021/05/07 07:11:52;;;;;;;1.40;0.93;;;;;12.10;101060.00;;;;5070652;28;20242;-76
2021/05/07 07:14:19;;;;;;;1.60;1.30;;;;;12.20;101075.00;;;;5068583;28;20207;-76
2021/05/07 07:16:46;;;;;;;1.90;1.27;;;;;12.20;101077.00;;;;5068722;28;20549;-77
2021/05/07 07:19:13;;;;;;;3.35;1.17;;;;;12.20;101072.00;;;;5068446;28;20194;-76
2021/05/07 07:21:40;;;;;;;1.63;1.20;;;;;12.30;101083.00;;;;5069265;28;20199;-76
2021/05/07 07:24:08;;;;;;;1.10;1.00;;;;;12.40;101091.00;;;;5068044;28;20187;-77
2021/05/07 07:26:34;;;;;;;1.77;1.00;;;;;12.50;101103.00;;;;5068411;28;20202;-77
2021/05/07 07:29:01;;;;;;;2.08;1.40;;;;;12.50;101099.00;;;;5079286;28;20263;-77
2021/05/07 07:31:28;;;;;;;1.70;1.35;;;;;12.60;101092.00;;;;5069643;28;20596;-77
2021/05/07 07:33:55;;;;;;;1.77;1.38;;;;;12.70;101094.00;;;;5068886;28;20203;-77
2021/05/07 07:36:22;;;;;;;0.90;0.80;;;;;12.70;101095.00;;;;5067938;28;20199;-77
2021/05/07 07:38:49;;;;;;;1.90;1.50;;;;;12.80;101099.00;;;;5085242;28;20247;-77
2021/05/07 07:41:16;;;;;;;1.17;1.05;;;;;12.80;101102.00;;;;5088473;28;20579;-77
2021/05/07 07:43:43;;;;;;;1.75;1.35;;;;;12.90;101110.00;;;;5089077;28;20206;-77
2021/05/07 07:46:10;;;;;;;2.40;1.20;;;;;13.00;101123.00;;;;5088120;28;20668;-77
2021/05/07 07:48:37;;;;;;;1.27;1.00;;;;;13.10;101114.00;;;;5088683;28;20204;-77
2021/05/07 07:51:04;;;;;;;1.98;1.50;;;;;13.20;101127.00;;;;5088294;28;20222;-78
2021/05/07 07:53:31;;;;;;;5.88;1.63;;;;;13.20;101129.00;;;;5088698;28;20205;-77
2021/05/07 07:55:59;;;;;;;1.92;1.70;;;;;13.30;101134.00;;;;5087554;28;20259;-78
2021/05/07 07:58:25;;;;;;;2.30;1.40;;;;;13.40;101146.00;;;;5089107;28;20199;-77
2021/05/07 08:00:54;;;;;;;2.53;1.42;;;;;13.40;101142.00;;;;5087582;28;20194;-77
2021/05/07 08:03:21;;;;;;;2.60;1.95;;;;;13.50;101146.00;;;;5088660;28;20281;-77
2021/05/07 08:05:48;;;;;;;2.38;1.58;;;;;13.60;101147.00;;;;5088602;28;20285;-78
2021/05/07 08:08:15;;;;;;;1.65;1.20;;;;;13.70;101149.00;;;;5088489;28;20233;-78
2021/05/07 08:10:42;;;;;;;2.10;1.73;;;;;13.80;101157.00;;;;5079749;28;20253;-77
2021/05/07 08:13:09;;;;;;;2.40;1.80;;;;;13.80;101164.00;;;;5068596;28;20203;-77
2021/05/07 08:15:35;;;;;;;2.90;1.40;;;;;13.90;101166.00;;;;5068242;28;20218;-78
2021/05/07 08:18:02;;;;;;;3.30;1.58;;;;;14.00;101164.00;;;;5068089;28;20685;-78
2021/05/07 08:20:29;;;;;;;2.22;1.40;;;;;14.10;101159.00;;;;5067689;28;20206;-78
2021/05/07 08:22:56;;;;;;;1.98;1.52;;;;;14.20;101164.00;;;;5071791;28;20668;-79
2021/05/07 08:25:23;;;;;;;1.83;1.50;;;;;14.40;101168.00;;;;5071727;28;20228;-78
2021/05/07 08:27:51;;;;;;;2.42;1.30;;;;;14.50;101163.00;;;;5074590;28;20198;-78
2021/05/07 08:30:18;;;;;;;2.00;1.27;;;;;14.60;101164.00;;;;5071673;28;20268;-79
2021/05/07 08:32:45;;;;;;;1.80;1.35;;;;;14.70;101173.00;;;;5071560;28;20202;-78
2021/05/07 08:35:12;;;;;;;1.55;1.45;;;;;14.80;101172.00;;;;5071365;28;20195;-78
2021/05/07 08:37:43;;;;;;;2.72;1.92;;;;;15.00;101181.00;;;;5072139;28;20210;-78
2021/05/07 08:40:11;;;;;;;1.98;1.42;;;;;15.10;101180.00;;;;5070212;28;20728;-78
2021/05/07 08:42:38;;;;;;;2.33;1.60;;;;;15.40;101195.00;;;;5071884;28;20199;-78
2021/05/07 08:45:08;;;;;;;2.30;1.50;;;;;15.50;101194.00;;;;5071739;28;20681;-78
2021/05/07 08:47:35;;;;;;;1.90;1.30;;;;;15.60;101200.00;;;;5071036;28;20213;-78
2021/05/07 08:50:07;;;;;;;2.97;1.90;;;;;15.60;101209.00;;;;5071082;28;20203;-78
2021/05/07 08:52:35;;;;;;;1.80;1.42;;;;;15.60;101218.00;;;;5071315;28;20195;-79
2021/05/07 08:55:02;;;;;;;3.90;1.60;;;;;15.60;101212.00;;;;5070824;28;20580;-78
2021/05/07 08:57:29;;;;;;;2.60;1.30;;;;;15.60;101215.00;;;;5071306;28;20199;-78
2021/05/07 08:59:56;;;;;;;1.50;1.25;;;;;15.50;101221.00;;;;5071030;28;20668;-78
2021/05/07 09:02:29;;;;;;;2.70;1.77;;;;;15.40;101219.00;;;;5072212;28;20206;-78
2021/05/07 09:04:56;;;;;;;2.88;1.48;;;;;15.40;101227.00;;;;5070043;28;20692;-78
2021/05/07 09:07:24;;;;;;;3.15;1.60;;;;;15.40;101227.00;;;;5070206;28;20230;-78
2021/05/07 09:09:54;;;;;;;4.65;1.85;;;;;15.40;101225.00;;;;5070795;28;20211;-79
2021/05/07 09:12:30;;;;;;;1.70;1.35;;;;;15.50;101222.00;;;;5070300;28;20281;-79
2021/05/07 09:14:57;;;;;;;1.27;1.10;;;;;15.60;101226.00;;;;5069629;28;20206;-78
2021/05/07 09:17:26;;;;;;;2.28;1.30;;;;;15.70;101230.00;;;;5070195;28;20721;-78
2021/05/07 09:20:06;;;;;;;1.30;1.02;;;;;15.70;101238.00;;;;5079604;28;20202;-78
2021/05/07 09:22:33;;;;;;;1.45;1.35;;;;;15.80;101246.00;;;;5090797;28;20194;-79
2021/05/07 09:25:11;;;;;;;1.90;1.30;;;;;15.90;101250.00;;;;5090511;28;20197;-79
2021/05/07 09:27:39;;;;;;;1.42;1.05;;;;;16.00;101238.00;;;;5089500;28;20209;-78
2021/05/07 09:30:10;;;;;;;1.42;1.30;;;;;16.20;101243.00;;;;5090406;28;20206;-78
2021/05/07 09:32:37;;;;;;;1.73;0.98;;;;;16.40;101248.00;;;;5089881;28;20305;-78
2021/05/07 09:35:13;;;;;;;1.23;1.13;;;;;16.50;101252.00;;;;5090773;28;20199;-79
2021/05/07 09:37:40;;;;;;;1.30;1.02;;;;;16.70;101260.00;;;;5074220;28;20579;-79
2021/05/07 09:40:18;;;;;;;2.08;1.20;;;;;16.60;101267.00;;;;5070485;28;20210;-78
2021/05/07 09:42:46;;;;;;;2.10;1.42;;;;;16.70;101270.00;;;;5070427;28;20205;-78
2021/05/07 09:45:24;;;;;;;1.67;1.00;;;;;16.50;101277.00;;;;5070498;28;20214;-78
2021/05/07 09:47:52;;;;;;;1.42;1.20;;;;;16.60;101282.00;;;;5070291;28;20209;-79
2021/05/07 09:50:21;;;;;;;2.15;1.50;;;;;16.60;101286.00;;;;5069936;28;20211;-78
2021/05/07 09:52:51;;;;;;;3.20;1.67;;;;;16.70;101289.00;;;;5070718;28;20217;-78
2021/05/07 09:55:22;;;;;;;1.58;1.27;;;;;16.70;101296.00;;;;5069626;28;20203;-78
2021/05/07 09:57:49;;;;;;;1.85;1.42;;;;;16.70;101298.00;;;;5070058;28;20198;-79
2021/05/07 10:00:17;;;;;;;2.55;2.00;;;;;16.70;101306.00;;;;5069353;28;20651;-79
2021/05/07 10:02:44;;;;;;;1.58;1.42;;;;;16.70;101309.00;;;;5070454;28;20210;-78
2021/05/07 10:05:12;;;;;;;1.83;1.58;;;;;16.80;101311.00;;;;5069226;28;20539;-79
2021/05/07 10:07:39;;;;;;;1.90;1.45;;;;;16.80;101311.00;;;;5069658;28;20218;-78
2021/05/07 10:10:08;;;;;;;2.92;1.58;;;;;16.90;101312.00;;;;5069558;28;20678;-79
2021/05/07 10:12:38;;;;;;;2.63;1.50;;;;;17.00;101313.00;;;;5069469;28;20223;-79
2021/05/07 10:15:06;;;;;;;1.92;1.20;;;;;17.20;101307.00;;;;5069054;28;20215;-79
2021/05/07 10:17:33;;;;;;;1.83;1.30;;;;;17.30;101318.00;;;;5068545;28;20206;-78
2021/05/07 10:20:00;;;;;;;2.58;1.65;;;;;17.40;101318.00;;;;5068850;28;20195;-77
2021/05/07 10:22:41;;;;;;;6.10;1.60;;;;;17.30;101318.00;;;;5069043;28;20528;-78
2021/05/07 10:25:16;;;;;;;3.50;1.75;;;;;17.30;101330.00;;;;5068556;28;20275;-77
2021/05/07 10:27:47;;;;;;;1.65;1.55;;;;;17.30;101346.00;;;;5070435;28;20206;-77
2021/05/07 10:30:38;;;;;;;1.50;1.33;;;;;17.20;101339.00;;;;5079932;28;20218;-78
2021/05/07 10:33:09;;;;;;;1.02;0.93;;;;;17.30;101340.00;;;;5053377;28;20198;-77
2021/05/07 10:35:38;;;;;;;1.42;0.90;;;;;17.40;101356.00;;;;5069845;28;20225;-77
2021/05/07 10:38:13;;;;;;;1.20;1.10;;;;;17.40;101342.00;;;;5069549;28;20249;-78
2021/05/07 10:40:40;;;;;;;2.40;0.93;;;;;17.50;101339.00;;;;5068814;28;20209;-77
2021/05/07 10:43:08;;;;;;;1.98;1.00;;;;;17.50;101356.00;;;;5068897;28;20199;-77
2021/05/07 10:45:47;;;;;;;2.17;1.58;;;;;17.40;101358.00;;;;5082952;28;20741;-77
2021/05/07 10:48:16;;;;;;;2.55;1.40;;;;;17.50;101352.00;;;;5089051;28;20233;-76
2021/05/07 10:50:43;;;;;;;1.85;1.20;;;;;17.50;101359.00;;;;5089157;28;20218;-77
2021/05/07 10:53:11;;;;;;;3.03;0.88;;;;;17.50;101357.00;;;;5089248;28;20202;-77
2021/05/07 10:55:38;;;;;;;2.85;1.60;;;;;17.60;101362.00;;;;5089431;28;20210;-76
2021/05/07 10:58:05;;;;;;;2.60;1.63;;;;;17.60;101349.00;;;;5089149;28;20198;-77
2021/05/07 11:00:36;;;;;;;1.92;1.40;;;;;17.60;101361.00;;;;5089429;28;20194;-78
2021/05/07 11:03:04;;;;;;;1.90;1.30;;;;;17.70;101371.00;;;;5087889;28;20616;-78
2021/05/07 11:05:38;;;;;;;4.20;1.83;;;;;17.70;101377.00;;;;5089219;28;20199;-77
2021/05/07 11:08:05;;;;;;;1.73;1.17;;;;;17.80;101374.00;;;;5088521;28;20275;-78
2021/05/07 11:10:33;;;;;;;3.75;1.55;;;;;17.90;101372.00;;;;5081931;28;20853;-78
2021/05/07 11:13:00;;;;;;;2.22;1.45;;;;;17.90;101382.00;;;;5068028;28;20199;-77
2021/05/07 11:15:27;;;;;;;3.17;1.58;;;;;18.00;101380.00;;;;5068311;28;20611;-78
2021/05/07 11:18:01;;;;;;;1.50;1.15;;;;;18.00;101379.00;;;;5069604;28;20203;-77
2021/05/07 11:20:34;;;;;;;2.67;1.02;;;;;18.10;101380.00;;;;5068248;28;20202;-77
2021/05/07 11:23:02;;;;;;;3.75;1.38;;;;;18.20;101393.00;;;;5068418;28;20203;-77
2021/05/07 11:25:32;;;;;;;2.22;1.20;;;;;18.20;101389.00;;;;5068127;28;20260;-77
2021/05/07 11:28:11;;;;;;;1.55;1.38;;;;;18.10;101399.00;;;;5071369;28;20203;-77
2021/05/07 11:30:52;;;;;;;1.70;1.40;;;;;18.10;101404.00;;;;5088365;28;20246;-78
2021/05/07 11:33:20;;;;;;;1.52;1.25;;;;;18.20;101393.00;;;;5088669;28;20202;-78
2021/05/07 11:35:47;;;;;;;1.60;1.38;;;;;18.30;101395.00;;;;5080495;28;20218;-77
2021/05/07 11:38:16;;;;;;;1.70;1.42;;;;;18.40;101395.00;;;;5068456;28;20195;-78
2021/05/07 11:40:43;;;;;;;2.20;1.70;;;;;18.40;101391.00;;;;5068886;28;20199;-77
2021/05/07 11:43:12;;;;;;;2.63;1.30;;;;;18.50;101404.00;;;;5068533;28;20207;-77
2021/05/07 11:45:39;;;;;;;1.20;1.00;;;;;18.60;101402.00;;;;5069270;28;20198;-79
2021/05/07 11:48:08;;;;;;;1.52;1.17;;;;;18.60;101411.00;;;;5069246;28;20194;-78
2021/05/07 11:50:35;;;;;;;2.28;1.50;;;;;18.70;101416.00;;;;5068906;28;20199;-78
2021/05/07 11:53:02;;;;;;;1.85;1.00;;;;;18.70;101421.00;;;;5078865;28;20210;-77
2021/05/07 11:55:31;;;;;;;1.25;0.93;;;;;18.70;101416.00;;;;5089272;28;20198;-78
2021/05/07 11:58:00;;;;;;;5.53;1.60;;;;;18.80;101426.00;;;;5084808;28;20291;-77
2021/05/07 12:00:28;;;;;;;1.73;1.40;;;;;18.80;101432.00;;;;5072142;28;20206;-78
2021/05/07 12:03:03;;;;;;;1.85;1.25;;;;;18.80;101428.00;;;;5090717;28;20748;-78
2021/05/07 12:05:33;;;;;;;1.73;1.00;;;;;18.90;101431.00;;;;5081198;28;20190;-77
2021/05/07 12:08:00;;;;;;;1.10;0.80;;;;;19.00;101430.00;;;;5074519;28;20603;-76
2021/05/07 12:10:28;;;;;;;1.83;1.23;;;;;19.10;101425.00;;;;5084171;28;20552;-76
2021/05/07 12:12:58;;;;;;;1.75;1.08;;;;;19.20;101431.00;;;;5071660;28;20208;-75
2021/05/07 12:15:28;;;;;;;1.40;1.10;;;;;19.20;101443.00;;;;5071074;28;20250;-77
2021/05/07 12:17:55;;;;;;;2.35;1.20;;;;;19.20;101443.00;;;;5071744;28;20609;-76